createdAt,value
2019-01-03T00:01:04.524Z,8.43
2019-01-03T00:03:52.974Z,7.07
2019-01-03T00:06:54.737Z,7.20
2019-01-03T00:09:44.108Z,7.40
2019-01-03T00:12:39.622Z,6.83
2019-01-03T00:15:27.661Z,7.60
2019-01-03T00:18:17.033Z,7.87
2019-01-03T00:21:12.548Z,7.67
2019-01-03T00:24:02.524Z,8.23
2019-01-03T00:26:53.705Z,6.93
2019-01-03T00:29:59.913Z,7.63
2019-01-03T00:32:44.574Z,7.93
2019-01-03T00:35:32.717Z,8.60
2019-01-03T00:38:25.160Z,8.67
2019-01-03T00:41:29.480Z,8.40
2019-01-03T00:44:21.723Z,8.93
2019-01-03T00:47:09.965Z,8.67
2019-01-03T00:49:56.366Z,9.40
2019-01-03T00:52:51.164Z,8.50
2019-01-03T00:55:43.404Z,8.60
2019-01-03T00:58:44.757Z,8.63
2019-01-03T01:02:22.460Z,9.80
2019-01-03T01:05:30.569Z,8.63
2019-01-03T01:08:32.332Z,8.70
2019-01-03T01:11:35.322Z,8.07
2019-01-03T01:14:35.243Z,8.10
2019-01-03T01:17:23.280Z,7.43
2019-01-03T01:20:09.580Z,7.63
2019-01-03T01:22:57.519Z,8.37
2019-01-03T01:25:45.454Z,8.03
2019-01-03T01:28:33.801Z,7.70
2019-01-03T01:31:21.944Z,8.97
2019-01-03T01:34:09.983Z,8.73
2019-01-03T01:36:58.126Z,7.80
2019-01-03T01:39:49.033Z,8.03
2019-01-03T01:42:37.380Z,8.10
2019-01-03T01:45:38.733Z,5.80
2019-01-03T01:48:33.837Z,6.80
2019-01-03T01:51:26.282Z,5.60
2019-01-03T01:54:15.951Z,6.60
2019-01-03T01:57:02.669Z,6.27
2019-01-03T01:59:50.607Z,5.87
2019-01-03T02:02:39.977Z,6.77
2019-01-03T02:05:28.120Z,6.93
2019-01-03T02:08:16.266Z,6.90
2019-01-03T02:11:04.302Z,6.30
2019-01-03T02:13:52.348Z,6.43
2019-01-03T02:16:41.816Z,6.20
2019-01-03T02:19:30.060Z,6.33
2019-01-03T02:22:31.721Z,6.10
2019-01-03T02:25:24.162Z,5.67
2019-01-03T02:28:19.372Z,5.77
2019-01-03T02:31:07.621Z,5.43
2019-01-03T02:34:15.421Z,5.20
2019-01-03T02:37:03.663Z,5.33
2019-01-03T02:40:05.220Z,4.70
2019-01-03T02:43:06.573Z,4.60
2019-01-03T02:45:49.491Z,5.00
2019-01-03T02:48:38.966Z,4.60
2019-01-03T02:51:37.246Z,4.93
2019-01-03T02:54:40.328Z,4.53
2019-01-03T02:57:31.349Z,5.40
2019-01-03T03:00:17.137Z,4.87
2019-01-03T03:03:24.939Z,4.97
2019-01-03T03:06:10.406Z,4.87
2019-01-03T03:09:09.006Z,4.80
2019-01-03T03:11:57.046Z,4.80
2019-01-03T03:14:49.387Z,5.63
2019-01-03T03:17:37.836Z,5.50
2019-01-03T03:20:27.414Z,5.47
2019-01-03T03:23:28.867Z,5.50
2019-01-03T03:26:25.406Z,4.43
2019-01-03T03:29:14.777Z,4.00
2019-01-03T03:32:04.252Z,5.43
2019-01-03T03:34:59.356Z,4.53
2019-01-03T03:37:57.637Z,3.80
2019-01-03T03:40:56.018Z,4.33
2019-01-03T03:43:45.390Z,3.70
2019-01-03T03:46:37.629Z,4.20
2019-01-03T03:49:36.114Z,3.80
2019-01-03T03:52:44.019Z,3.93
2019-01-03T03:55:45.784Z,3.33
2019-01-03T03:58:38.123Z,3.57
2019-01-03T04:01:26.064Z,3.20
2019-01-03T04:04:18.301Z,3.40
2019-01-03T04:07:13.403Z,3.20
2019-01-03T04:10:14.959Z,3.33
2019-01-03T04:13:07.798Z,4.70
2019-01-03T04:15:49.084Z,3.60
2019-01-03T04:18:41.849Z,3.93
2019-01-03T04:21:34.288Z,3.80
2019-01-03T04:24:36.153Z,4.67
2019-01-03T04:27:25.522Z,3.80
2019-01-03T04:30:30.153Z,4.43
2019-01-03T04:33:15.324Z,4.60
2019-01-03T04:36:04.695Z,3.93
2019-01-03T04:38:54.067Z,4.83
2019-01-03T04:41:42.414Z,5.53
2019-01-03T04:44:37.725Z,4.60
2019-01-03T04:47:39.280Z,5.00
2019-01-03T04:50:27.218Z,4.63
2019-01-03T04:53:15.465Z,5.10
2019-01-03T04:56:04.936Z,5.47
2019-01-03T04:58:57.283Z,5.47
2019-01-03T05:02:06.823Z,5.97
2019-01-03T05:04:59.367Z,7.00
2019-01-03T05:07:48.738Z,5.80
2019-01-03T05:10:38.109Z,6.03
2019-01-03T05:13:26.252Z,6.60
2019-01-03T05:16:14.292Z,6.40
2019-01-03T05:19:19.024Z,6.70
2019-01-03T05:22:07.063Z,7.83
2019-01-03T05:25:02.680Z,7.43
2019-01-03T05:27:57.888Z,6.87
2019-01-03T05:30:47.465Z,7.53
2019-01-03T05:33:36.017Z,7.30
2019-01-03T05:36:34.502Z,6.87
2019-01-03T05:39:24.693Z,8.57
2019-01-03T05:42:12.736Z,8.03
2019-01-03T05:45:02.121Z,7.97
2019-01-03T05:47:50.150Z,8.63
2019-01-03T05:50:45.660Z,8.33
2019-01-03T05:53:37.897Z,7.77
2019-01-03T05:56:27.269Z,7.67
2019-01-03T05:59:35.071Z,6.53
2019-01-03T06:02:23.007Z,7.33
2019-01-03T06:05:10.845Z,7.10
2019-01-03T06:08:08.202Z,9.20
2019-01-03T06:10:49.485Z,7.53
2019-01-03T06:13:44.793Z,9.33
2019-01-03T06:16:40.207Z,8.70
2019-01-03T06:19:38.692Z,8.97
2019-01-03T06:22:40.352Z,7.90
2019-01-03T06:25:42.014Z,11.97
2019-01-03T06:28:34.455Z,9.67
2019-01-03T06:31:39.389Z,9.77
2019-01-03T06:34:40.949Z,9.93
2019-01-03T06:37:28.986Z,9.87
2019-01-03T06:40:24.195Z,9.43
2019-01-03T06:43:19.093Z,10.17
2019-01-03T06:46:14.508Z,9.67
2019-01-03T06:49:15.245Z,12.23
2019-01-03T06:52:16.909Z,10.90
2019-01-03T06:55:09.041Z,9.80
2019-01-03T06:57:57.388Z,10.13
2019-01-03T07:00:55.771Z,11.37
2019-01-03T07:03:45.244Z,10.77
2019-01-03T07:06:49.668Z,11.80
2019-01-03T07:09:39.039Z,11.67
2019-01-03T07:12:27.594Z,10.07
2019-01-03T07:15:29.968Z,12.97
2019-01-03T07:18:14.525Z,13.47
2019-01-03T07:21:03.999Z,12.83
2019-01-03T07:24:02.688Z,16.40
2019-01-03T07:26:50.626Z,15.77
2019-01-03T07:29:39.997Z,14.57
2019-01-03T07:32:29.371Z,12.83
2019-01-03T07:35:18.228Z,12.47
2019-01-03T07:38:07.605Z,13.30
2019-01-03T07:40:55.946Z,11.80
2019-01-03T07:43:57.401Z,12.57
2019-01-03T07:46:55.783Z,11.80
2019-01-03T07:49:44.028Z,11.93
2019-01-03T07:52:32.068Z,11.57
2019-01-03T07:55:20.108Z,12.03
2019-01-03T07:58:12.144Z,12.33
2019-01-03T08:01:04.278Z,12.07
2019-01-03T08:04:02.762Z,11.63
2019-01-03T08:06:50.701Z,14.23
2019-01-03T08:09:43.144Z,12.67
2019-01-03T08:12:50.844Z,11.73
2019-01-03T08:15:35.802Z,11.40
2019-01-03T08:18:27.949Z,11.83
2019-01-03T08:21:15.988Z,12.30
2019-01-03T08:24:08.540Z,10.83
2019-01-03T08:26:58.612Z,13.80
2019-01-03T08:29:47.993Z,12.17
2019-01-03T08:32:43.203Z,14.17
2019-01-03T08:35:48.139Z,12.63
2019-01-03T08:38:37.922Z,13.10
2019-01-03T08:41:25.855Z,12.10
2019-01-03T08:44:17.158Z,9.70
2019-01-03T08:47:05.316Z,10.13
2019-01-03T08:49:50.590Z,11.40
2019-01-03T08:52:55.617Z,11.80
2019-01-03T08:56:00.358Z,10.47
2019-01-03T08:59:04.785Z,10.47
2019-01-03T09:01:54.153Z,10.03
2019-01-03T09:04:52.844Z,10.50
2019-01-03T09:07:51.022Z,10.27
2019-01-03T09:10:40.392Z,9.00
2019-01-03T09:13:32.530Z,9.30
2019-01-03T09:16:27.737Z,9.00
2019-01-03T09:19:16.189Z,11.70
2019-01-03T09:22:23.785Z,10.27
2019-01-03T09:25:15.511Z,10.67
2019-01-03T09:28:13.894Z,10.77
2019-01-03T09:31:01.830Z,9.83
2019-01-03T09:34:06.153Z,11.33
2019-01-03T09:36:52.350Z,9.83
2019-01-03T09:39:41.823Z,8.27
2019-01-03T09:42:49.524Z,8.40
2019-01-03T09:45:19.942Z,7.03
2019-01-03T09:47:50.377Z,7.30
2019-01-03T09:50:20.794Z,7.90
2019-01-03T09:52:51.231Z,7.73
2019-01-03T09:55:21.649Z,7.10
2019-01-03T09:57:52.085Z,10.03
2019-01-03T10:00:22.500Z,7.53
2019-01-03T10:02:52.926Z,6.33
2019-01-03T10:05:23.354Z,5.80
2019-01-03T10:07:53.781Z,5.27
2019-01-03T10:10:24.371Z,5.07
2019-01-03T10:12:54.862Z,5.77
2019-01-03T10:15:25.269Z,4.87
2019-01-03T10:17:55.912Z,6.03
2019-01-03T10:20:26.401Z,4.97
2019-01-03T10:22:56.854Z,5.10
2019-01-03T10:25:27.285Z,5.83
2019-01-03T10:27:57.711Z,4.63
2019-01-03T10:30:28.138Z,4.43
2019-01-03T10:32:58.561Z,4.87
2019-01-03T10:35:29.001Z,4.13
2019-01-03T10:37:59.725Z,4.13
2019-01-03T10:40:30.154Z,3.77
2019-01-03T10:43:00.634Z,4.10
2019-01-03T10:45:31.110Z,3.50
2019-01-03T10:48:01.547Z,4.00
2019-01-03T10:50:31.962Z,3.43
2019-01-03T10:53:02.390Z,3.33
2019-01-03T10:55:32.817Z,2.53
2019-01-03T10:58:03.254Z,2.50
2019-01-03T11:00:33.670Z,2.83
2019-01-03T11:03:04.098Z,2.60
2019-01-03T11:05:34.525Z,2.70
2019-01-03T11:08:04.954Z,2.50
2019-01-03T11:10:35.379Z,2.53
2019-01-03T11:13:05.806Z,2.10
2019-01-03T11:15:36.284Z,2.37
2019-01-03T11:18:06.762Z,2.60
2019-01-03T11:20:37.406Z,2.70
2019-01-03T11:23:08.140Z,2.57
2019-01-03T11:25:38.554Z,2.23
2019-01-03T11:28:08.981Z,2.97
2019-01-03T11:30:39.421Z,2.80
2019-01-03T11:33:09.839Z,2.53
2019-01-03T11:35:40.262Z,3.30
2019-01-03T11:38:11.013Z,2.97
2019-01-03T11:40:41.427Z,3.30
2019-01-03T11:43:11.862Z,2.80
2019-01-03T11:45:42.334Z,4.00
2019-01-03T11:48:12.805Z,3.35
2019-01-03T11:50:43.245Z,3.58
2019-01-03T11:53:13.673Z,3.50
2019-01-03T11:55:44.090Z,3.25
2019-01-03T11:58:14.514Z,3.55
2019-01-03T12:00:44.943Z,2.77
2019-01-03T12:03:15.368Z,2.67
2019-01-03T12:05:45.793Z,2.50
2019-01-03T12:08:16.234Z,2.40
2019-01-03T12:10:46.651Z,2.70
2019-01-03T12:13:17.092Z,2.45
2019-01-03T12:15:47.506Z,2.47
2019-01-03T12:18:17.986Z,3.00
2019-01-03T12:20:48.489Z,2.40
2019-01-03T12:23:19.207Z,2.47
2019-01-03T12:25:49.838Z,2.62
2019-01-03T12:28:20.254Z,2.60
2019-01-03T12:30:50.781Z,2.80
2019-01-03T12:33:21.212Z,2.70
2019-01-03T12:35:51.738Z,2.62
2019-01-03T12:38:22.370Z,2.67
2019-01-03T12:40:52.799Z,2.90
2019-01-03T12:43:23.236Z,2.70
2019-01-03T12:45:53.669Z,3.00
2019-01-03T12:48:24.145Z,3.45
2019-01-03T12:50:54.611Z,2.72
2019-01-03T12:53:25.035Z,3.00
2019-01-03T12:55:55.461Z,2.52
2019-01-03T12:58:25.910Z,2.12
2019-01-03T13:00:56.319Z,1.90
2019-01-03T13:03:26.754Z,1.82
2019-01-03T13:05:57.180Z,1.42
2019-01-03T13:08:27.597Z,1.67
2019-01-03T13:10:58.241Z,1.60
2019-01-03T13:13:28.757Z,2.17
2019-01-03T13:15:59.187Z,1.82
2019-01-03T13:18:29.718Z,1.67
2019-01-03T13:21:00.195Z,1.75
2019-01-03T13:23:30.707Z,2.02
2019-01-03T13:26:08.062Z,2.05
2019-01-03T13:28:38.489Z,1.82
2019-01-03T13:31:08.913Z,1.65
2019-01-03T13:33:39.342Z,1.77
2019-01-03T13:36:10.498Z,1.82
2019-01-03T13:38:40.914Z,1.80
2019-01-03T13:41:11.338Z,1.52
2019-01-03T13:43:41.779Z,1.60
2019-01-03T13:46:12.194Z,1.85
2019-01-03T13:48:42.634Z,1.65
2019-01-03T13:51:13.153Z,1.62
2019-01-03T13:53:43.600Z,1.60
2019-01-03T13:56:14.003Z,2.17
2019-01-03T13:58:44.429Z,2.10
2019-01-03T14:01:14.858Z,1.80
2019-01-03T14:03:45.297Z,1.80
2019-01-03T14:06:15.725Z,1.40
2019-01-03T14:08:46.138Z,1.40
2019-01-03T14:11:16.783Z,1.50
2019-01-03T14:13:47.209Z,1.52
2019-01-03T14:16:17.622Z,1.52
2019-01-03T14:18:48.052Z,1.70
2019-01-03T14:21:18.511Z,1.60
2019-01-03T14:23:49.126Z,1.90
2019-01-03T14:26:19.540Z,1.90
2019-01-03T14:28:49.975Z,2.30
2019-01-03T14:31:20.614Z,2.10
2019-01-03T14:33:51.125Z,2.03
2019-01-03T14:36:21.555Z,1.70
2019-01-03T14:38:51.982Z,1.80
2019-01-03T14:41:22.417Z,1.90
2019-01-03T14:43:52.934Z,1.80
2019-01-03T14:46:23.374Z,1.90
2019-01-03T14:48:53.803Z,1.90
2019-01-03T14:51:24.231Z,2.07
2019-01-03T14:53:55.738Z,2.03
2019-01-03T14:56:26.212Z,1.70
2019-01-03T14:58:56.639Z,1.60
2019-01-03T15:01:27.050Z,1.70
2019-01-03T15:03:57.478Z,2.20
2019-01-03T15:06:27.908Z,1.90
2019-01-03T15:08:58.333Z,2.17
2019-01-03T15:11:28.758Z,2.30
2019-01-03T15:13:59.190Z,2.47
2019-01-03T15:16:29.845Z,3.10
2019-01-03T15:19:00.247Z,2.30
2019-01-03T15:21:30.714Z,2.20
2019-01-03T15:24:01.323Z,2.03
2019-01-03T15:26:31.735Z,2.00
2019-01-03T15:29:02.159Z,2.23
2019-01-03T15:31:32.804Z,2.40
2019-01-03T15:34:03.536Z,2.03
2019-01-03T15:36:34.153Z,2.03
2019-01-03T15:39:04.993Z,2.10
2019-01-03T15:41:35.421Z,2.00
2019-01-03T15:44:05.857Z,2.30
2019-01-03T15:46:36.593Z,2.30
2019-01-03T15:49:07.006Z,2.40
2019-01-03T15:51:37.434Z,2.30
2019-01-03T15:54:07.864Z,2.23
2019-01-03T15:56:38.593Z,2.70
2019-01-03T15:59:09.023Z,3.37
2019-01-03T16:01:39.451Z,2.93
2019-01-03T16:04:09.887Z,3.47
2019-01-03T16:06:40.304Z,3.17
2019-01-03T16:09:10.729Z,2.70
2019-01-03T16:11:41.171Z,3.50
2019-01-03T16:14:11.582Z,4.20
2019-01-03T16:16:42.010Z,3.40
2019-01-03T16:19:12.439Z,3.67
2019-01-03T16:21:42.867Z,4.47
2019-01-03T16:24:13.318Z,4.07
2019-01-03T16:26:43.965Z,3.90
2019-01-03T16:29:14.354Z,22.67
2019-01-03T16:31:44.778Z,5.00
2019-01-03T16:34:15.216Z,3.30
2019-01-03T16:36:45.747Z,3.90
2019-01-03T16:39:16.161Z,4.17
2019-01-03T16:41:46.601Z,4.23
2019-01-03T16:44:17.134Z,4.13
2019-01-03T16:46:47.546Z,4.70
2019-01-03T16:49:18.095Z,5.17
2019-01-03T16:51:48.808Z,4.37
2019-01-03T16:54:19.261Z,6.10
2019-01-03T16:56:49.672Z,8.03
2019-01-03T16:59:20.251Z,4.50
2019-01-03T17:01:50.725Z,8.90
2019-01-03T17:04:21.150Z,5.57
2019-01-03T17:06:51.578Z,5.17
2019-01-03T17:09:22.017Z,16.53
2019-01-03T17:11:52.636Z,6.40
2019-01-03T17:14:25.122Z,6.40
2019-01-03T17:16:55.614Z,36.97
2019-01-03T17:19:26.065Z,12.77
2019-01-03T17:21:56.506Z,6.93
2019-01-03T17:24:26.974Z,6.97
2019-01-03T17:26:57.667Z,29.50
2019-01-03T17:29:28.300Z,8.40
2019-01-03T17:31:58.726Z,8.03
2019-01-03T17:34:29.142Z,8.57
2019-01-03T17:36:59.580Z,28.40
2019-01-03T17:39:29.995Z,8.07
2019-01-03T17:42:00.434Z,8.23
2019-01-03T17:44:30.862Z,50.93
2019-01-03T17:47:01.285Z,8.97
2019-01-03T17:49:31.701Z,9.30
2019-01-03T17:52:02.449Z,8.43
2019-01-03T17:54:32.873Z,7.67
2019-01-03T17:57:03.304Z,13.80
2019-01-03T17:59:33.718Z,8.03
2019-01-03T18:02:04.407Z,7.13
2019-01-03T18:04:34.878Z,7.10
2019-01-03T18:07:05.306Z,9.03
2019-01-03T18:09:35.735Z,8.33
2019-01-03T18:12:06.171Z,11.23
2019-01-03T18:14:36.585Z,8.37
2019-01-03T18:17:07.209Z,8.63
2019-01-03T18:19:37.656Z,8.53
2019-01-03T18:22:08.082Z,8.80
2019-01-03T18:24:38.530Z,8.40
2019-01-03T18:27:41.818Z,8.17
2019-01-03T18:30:13.506Z,8.90
2019-01-03T18:32:44.348Z,8.47
2019-01-03T18:35:14.830Z,13.30
2019-01-03T18:37:45.257Z,10.47
2019-01-03T18:40:17.162Z,8.90
2019-01-03T18:42:48.611Z,9.50
2019-01-03T18:45:28.609Z,9.27
2019-01-03T18:47:59.037Z,8.53
2019-01-03T18:50:29.679Z,11.03
2019-01-03T18:53:00.097Z,8.60
2019-01-03T18:55:30.522Z,9.17
2019-01-03T18:58:00.949Z,8.80
2019-01-03T19:00:31.374Z,8.90
2019-01-03T19:03:01.802Z,8.03
2019-01-03T19:05:32.297Z,8.97
2019-01-03T19:08:02.774Z,8.10
2019-01-03T19:10:33.187Z,8.40
2019-01-03T19:13:03.625Z,9.33
2019-01-03T19:15:34.041Z,9.40
2019-01-03T19:18:04.469Z,10.43
2019-01-03T19:20:34.893Z,9.60
2019-01-03T19:23:05.322Z,10.87
2019-01-03T19:25:35.749Z,9.67
2019-01-03T19:28:06.174Z,9.83
2019-01-03T19:30:36.634Z,10.30
2019-01-03T19:33:07.245Z,9.63
2019-01-03T19:35:37.714Z,8.80
2019-01-03T19:38:08.190Z,9.30
2019-01-03T19:40:38.617Z,8.97
2019-01-03T19:43:09.042Z,8.90
2019-01-03T19:45:39.482Z,8.70
2019-01-03T19:48:09.898Z,8.73
2019-01-03T19:50:40.541Z,8.13
2019-01-03T19:53:10.969Z,8.70
2019-01-03T19:55:41.501Z,8.27
2019-01-03T19:58:12.117Z,17.70
2019-01-03T20:00:42.549Z,8.90
2019-01-03T20:03:13.511Z,8.93
2019-01-03T20:05:43.922Z,7.50
2019-01-03T20:08:14.432Z,7.87
2019-01-03T20:10:44.872Z,8.33
2019-01-03T20:13:15.308Z,8.73
2019-01-03T20:15:45.836Z,8.50
2019-01-03T20:18:16.472Z,8.07
2019-01-03T20:20:52.819Z,7.80
2019-01-03T20:23:18.950Z,7.60
2019-01-03T20:25:49.374Z,9.03
2019-01-03T20:28:19.804Z,8.10
2019-01-03T20:30:50.268Z,9.07
2019-01-03T20:33:22.921Z,9.27
2019-01-03T20:35:53.836Z,8.83
2019-01-03T20:38:24.331Z,9.43
2019-01-03T20:40:54.842Z,8.40
2019-01-03T20:43:25.244Z,9.03
2019-01-03T20:45:55.674Z,8.93
2019-01-03T20:48:26.727Z,9.17
2019-01-03T20:50:57.673Z,10.73
2019-01-03T20:53:28.179Z,13.80
2019-01-03T20:55:58.606Z,10.60
2019-01-03T20:58:29.034Z,9.87
2019-01-03T21:00:59.461Z,10.23
2019-01-03T21:03:29.878Z,11.40
2019-01-03T21:06:00.314Z,11.03
2019-01-03T21:08:30.742Z,10.73
2019-01-03T21:11:01.209Z,10.53
2019-01-03T21:13:31.802Z,10.00
2019-01-03T21:16:02.225Z,11.20
2019-01-03T21:18:32.654Z,10.03
2019-01-03T21:21:03.081Z,11.23
2019-01-03T21:23:47.435Z,10.40
2019-01-03T21:26:35.842Z,12.07
2019-01-03T21:29:06.313Z,10.77
2019-01-03T21:31:37.046Z,10.30
2019-01-03T21:34:08.489Z,11.03
2019-01-03T21:36:39.026Z,10.13
2019-01-03T21:39:10.170Z,9.87
2019-01-03T21:41:41.110Z,11.07
2019-01-03T21:44:11.536Z,9.67
2019-01-03T21:46:41.953Z,11.07
2019-01-03T21:49:12.493Z,19.43
2019-01-03T21:51:43.012Z,10.40
2019-01-03T21:54:13.438Z,13.20
2019-01-03T21:56:43.876Z,10.50
2019-01-03T21:59:14.293Z,10.33
2019-01-03T22:01:44.733Z,11.03
2019-01-03T22:04:15.156Z,11.47
2019-01-03T22:06:45.584Z,10.63
2019-01-03T22:09:16.001Z,11.70
2019-01-03T22:11:46.426Z,10.07
2019-01-03T22:14:16.987Z,11.40
2019-01-03T22:16:50.466Z,11.73
2019-01-03T22:19:20.892Z,10.30
2019-01-03T22:21:51.310Z,10.57
2019-01-03T22:24:21.737Z,10.03
2019-01-03T22:26:52.265Z,10.80
2019-01-03T22:29:22.694Z,10.80
2019-01-03T22:31:53.429Z,11.10
2019-01-03T22:34:24.174Z,12.00
2019-01-03T22:36:54.803Z,11.43
2019-01-03T22:39:25.333Z,11.30
2019-01-03T22:41:55.760Z,11.00
2019-01-03T22:44:26.251Z,11.20
2019-01-03T22:46:56.715Z,10.80
2019-01-03T22:49:27.134Z,11.43
2019-01-03T22:51:58.492Z,11.40
2019-01-03T22:54:28.918Z,11.17
2019-01-03T22:56:59.735Z,11.27
2019-01-03T22:59:30.180Z,11.30
2019-01-03T23:02:00.701Z,12.00
2019-01-03T23:04:31.126Z,12.63
2019-01-03T23:07:01.554Z,12.03
2019-01-03T23:09:31.981Z,12.50
2019-01-03T23:12:02.422Z,12.80
2019-01-03T23:14:33.870Z,12.07
2019-01-03T23:17:04.708Z,11.33
2019-01-03T23:19:35.122Z,12.40
2019-01-03T23:22:05.550Z,18.37
2019-01-03T23:24:52.053Z,18.17
2019-01-03T23:27:22.565Z,20.50
2019-01-03T23:30:01.930Z,20.57
2019-01-03T23:32:32.386Z,21.13
2019-01-03T23:35:03.040Z,21.07
2019-01-03T23:37:35.111Z,17.90
2019-01-03T23:40:07.387Z,15.40
2019-01-03T23:42:37.900Z,14.07
2019-01-03T23:45:19.137Z,15.30
2019-01-03T23:47:50.632Z,15.03
2019-01-03T23:50:23.779Z,14.73
2019-01-03T23:52:54.375Z,16.33
2019-01-03T23:55:25.911Z,15.13
2019-01-03T23:57:56.378Z,17.50
